createdAt,value
2022-11-08T00:02:48.770Z,26.92
2022-11-08T00:06:09.363Z,11.20
2022-11-08T00:09:36.362Z,93.13
2022-11-08T00:12:56.722Z,31.50
2022-11-08T00:16:01.089Z,13.77
2022-11-08T00:19:02.997Z,8.90
2022-11-08T00:22:05.040Z,8.10
2022-11-08T00:25:07.337Z,8.40
2022-11-08T00:28:09.075Z,12.07
2022-11-08T00:31:10.909Z,8.77
2022-11-08T00:34:13.891Z,7.70
2022-11-08T00:37:16.811Z,4.95
2022-11-08T00:40:18.886Z,7.93
2022-11-08T00:43:21.385Z,12.60
2022-11-08T00:46:23.331Z,25.27
2022-11-08T00:49:25.221Z,15.30
2022-11-08T00:52:27.154Z,13.02
2022-11-08T00:55:28.916Z,9.02
2022-11-08T00:58:30.793Z,6.18
2022-11-08T01:01:33.050Z,6.80
2022-11-08T01:04:35.031Z,5.20
2022-11-08T01:07:38.406Z,5.30
2022-11-08T01:10:44.979Z,6.03
2022-11-08T01:13:49.255Z,8.65
2022-11-08T01:16:52.345Z,6.43
2022-11-08T01:19:54.064Z,7.30
2022-11-08T01:22:55.776Z,9.85
2022-11-08T01:25:57.597Z,8.10
2022-11-08T01:28:59.795Z,10.55
2022-11-08T01:32:01.629Z,5.85
2022-11-08T01:35:03.679Z,7.18
2022-11-08T01:38:06.915Z,7.93
2022-11-08T01:41:11.844Z,7.22
2022-11-08T01:44:16.890Z,6.25
2022-11-08T01:47:18.987Z,6.93
2022-11-08T01:50:20.803Z,8.95
2022-11-08T01:53:22.831Z,5.45
2022-11-08T01:56:24.817Z,7.47
2022-11-08T01:59:30.677Z,6.93
2022-11-08T02:02:33.310Z,7.80
2022-11-08T02:05:35.110Z,5.57
2022-11-08T02:08:39.702Z,13.23
2022-11-08T02:11:41.870Z,36.88
2022-11-08T02:14:43.768Z,18.42
2022-11-08T02:17:45.647Z,15.20
2022-11-08T02:21:09.159Z,15.55
2022-11-08T02:24:12.468Z,13.70
2022-11-08T02:27:15.053Z,14.25
2022-11-08T02:30:16.840Z,22.77
2022-11-08T02:33:23.011Z,32.33
2022-11-08T02:36:24.927Z,14.57
2022-11-08T02:39:26.833Z,13.32
2022-11-08T02:42:28.496Z,21.48
2022-11-08T02:45:30.181Z,14.20
2022-11-08T02:48:31.859Z,16.08
2022-11-08T02:51:33.683Z,12.20
2022-11-08T02:54:35.646Z,11.52
2022-11-08T02:57:37.332Z,8.82
2022-11-08T03:00:39.628Z,8.18
2022-11-08T03:03:41.329Z,7.60
2022-11-08T03:06:43.146Z,9.02
2022-11-08T03:09:44.953Z,7.00
2022-11-08T03:12:46.684Z,11.77
2022-11-08T03:15:48.479Z,9.73
2022-11-08T03:18:50.206Z,8.40
2022-11-08T03:21:51.902Z,9.18
2022-11-08T03:24:53.767Z,9.95
2022-11-08T03:27:55.811Z,8.88
2022-11-08T03:30:58.058Z,8.52
2022-11-08T03:33:59.811Z,5.90
2022-11-08T03:37:01.538Z,5.68
2022-11-08T03:40:04.110Z,10.00
2022-11-08T03:43:05.871Z,7.97
2022-11-08T03:46:07.603Z,8.93
2022-11-08T03:49:09.519Z,6.70
2022-11-08T03:52:11.657Z,6.72
2022-11-08T03:55:14.396Z,5.63
2022-11-08T03:58:16.492Z,7.03
2022-11-08T04:01:18.526Z,7.10
2022-11-08T04:04:20.377Z,8.05
2022-11-08T04:07:22.189Z,9.52
2022-11-08T04:10:23.866Z,5.82
2022-11-08T04:13:44.245Z,5.53
2022-11-08T04:16:45.995Z,5.90
2022-11-08T04:20:20.036Z,5.22
2022-11-08T04:23:21.693Z,9.90
2022-11-08T04:26:23.529Z,6.45
2022-11-08T04:29:25.479Z,6.90
2022-11-08T04:32:27.160Z,5.32
2022-11-08T04:35:30.123Z,9.18
2022-11-08T04:38:32.381Z,9.05
2022-11-08T04:41:34.319Z,11.70
2022-11-08T04:44:36.094Z,7.45
2022-11-08T04:47:41.117Z,6.78
2022-11-08T04:50:45.052Z,7.72
2022-11-08T04:53:46.976Z,7.28
2022-11-08T04:56:49.196Z,8.57
2022-11-08T04:59:50.915Z,8.95
2022-11-08T05:02:52.922Z,8.00
2022-11-08T05:05:54.848Z,6.65
2022-11-08T05:08:57.856Z,6.20
2022-11-08T05:11:59.976Z,10.07
2022-11-08T05:15:01.690Z,8.55
2022-11-08T05:18:03.603Z,7.53
2022-11-08T05:21:23.908Z,7.13
2022-11-08T05:24:25.914Z,10.35
2022-11-08T05:27:28.752Z,9.10
2022-11-08T05:30:30.557Z,8.75
2022-11-08T05:33:32.920Z,7.50
2022-11-08T05:36:35.024Z,11.73
2022-11-08T05:39:36.961Z,8.23
2022-11-08T05:42:38.805Z,4.63
2022-11-08T05:45:40.722Z,6.93
2022-11-08T05:48:43.620Z,6.82
2022-11-08T05:51:45.499Z,10.85
2022-11-08T05:54:47.763Z,16.00
2022-11-08T05:57:49.852Z,6.00
2022-11-08T06:00:51.641Z,9.38
2022-11-08T06:03:53.570Z,5.65
2022-11-08T06:06:57.785Z,8.35
2022-11-08T06:09:59.858Z,9.20
2022-11-08T06:13:01.816Z,6.80
2022-11-08T06:16:05.801Z,7.45
2022-11-08T06:19:07.909Z,6.47
2022-11-08T06:22:09.982Z,7.65
2022-11-08T06:25:12.721Z,5.70
2022-11-08T06:28:15.043Z,6.13
2022-11-08T06:31:17.011Z,7.07
2022-11-08T06:34:18.768Z,6.78
2022-11-08T06:37:20.601Z,5.65
2022-11-08T06:40:22.477Z,6.90
2022-11-08T06:43:24.331Z,5.53
2022-11-08T06:46:26.750Z,10.05
2022-11-08T06:49:28.795Z,8.32
2022-11-08T06:52:30.608Z,10.02
2022-11-08T06:55:33.066Z,5.72
2022-11-08T06:58:35.160Z,7.60
2022-11-08T07:01:38.441Z,10.63
2022-11-08T07:04:42.729Z,9.90
2022-11-08T07:07:44.571Z,8.90
2022-11-08T07:10:46.407Z,10.18
2022-11-08T07:13:48.200Z,8.70
2022-11-08T07:16:50.065Z,10.38
2022-11-08T07:19:52.035Z,12.95
2022-11-08T07:22:58.087Z,12.10
2022-11-08T07:26:04.260Z,11.93
2022-11-08T07:29:06.081Z,10.57
2022-11-08T07:32:07.899Z,14.45
2022-11-08T07:35:10.040Z,11.88
2022-11-08T07:38:11.916Z,15.35
2022-11-08T07:41:13.710Z,18.20
2022-11-08T07:44:15.514Z,20.13
2022-11-08T07:47:17.401Z,19.25
2022-11-08T07:50:19.193Z,20.30
2022-11-08T07:53:21.806Z,15.25
2022-11-08T07:56:23.687Z,15.82
2022-11-08T07:59:25.598Z,12.00
2022-11-08T08:02:27.483Z,14.63
2022-11-08T08:05:35.119Z,14.15
2022-11-08T08:08:37.106Z,13.98
2022-11-08T08:11:38.921Z,13.13
2022-11-08T08:14:40.837Z,10.48
2022-11-08T08:17:42.661Z,13.07
2022-11-08T08:20:46.736Z,14.88
2022-11-08T08:23:48.650Z,14.75
2022-11-08T08:26:50.501Z,12.20
2022-11-08T08:29:52.376Z,15.27
2022-11-08T08:33:26.978Z,12.93
2022-11-08T08:36:24.190Z,14.15
2022-11-08T08:39:26.109Z,16.50
2022-11-08T08:42:27.979Z,17.30
2022-11-08T08:45:30.147Z,18.23
2022-11-08T08:48:32.566Z,14.90
2022-11-08T08:51:34.681Z,16.10
2022-11-08T08:54:36.740Z,12.68
2022-11-08T08:57:38.685Z,8.38
2022-11-08T09:04:02.790Z,11.43
2022-11-08T09:07:05.142Z,23.60
2022-11-08T09:10:08.289Z,12.93
2022-11-08T09:13:10.168Z,15.68
2022-11-08T09:16:13.764Z,11.05
2022-11-08T09:19:15.586Z,11.50
2022-11-08T09:22:17.432Z,11.05
2022-11-08T09:25:19.894Z,13.95
2022-11-08T09:28:22.011Z,13.93
2022-11-08T09:31:25.157Z,12.75
2022-11-08T09:34:27.302Z,9.93
2022-11-08T09:37:29.641Z,8.20
2022-11-08T09:40:47.177Z,9.57
2022-11-08T09:47:36.253Z,10.32
2022-11-08T09:50:40.919Z,9.25
2022-11-08T09:53:53.200Z,9.70
2022-11-08T09:56:57.992Z,12.18
2022-11-08T10:00:04.518Z,13.75
2022-11-08T10:06:43.656Z,11.25
2022-11-08T10:10:30.742Z,70.53
2022-11-08T10:13:52.608Z,21.15
2022-11-08T10:17:07.358Z,14.45
2022-11-08T10:20:51.395Z,21.33
2022-11-08T10:24:16.773Z,16.88
2022-11-08T10:27:25.346Z,12.65
2022-11-08T10:30:33.467Z,7.90
2022-11-08T10:33:45.696Z,13.68
2022-11-08T10:36:49.239Z,12.52
2022-11-08T10:40:04.460Z,9.13
2022-11-08T10:43:10.332Z,9.57
2022-11-08T10:46:27.579Z,8.40
2022-11-08T10:49:43.874Z,9.35
2022-11-08T10:52:54.659Z,9.20
2022-11-08T10:56:02.072Z,8.02
2022-11-08T10:59:03.889Z,9.95
2022-11-08T11:02:26.378Z,6.55
2022-11-08T11:05:37.368Z,7.65
2022-11-08T11:08:49.290Z,11.35
2022-11-08T11:12:08.226Z,8.18
2022-11-08T11:15:16.483Z,12.52
2022-11-08T11:18:28.123Z,9.80
2022-11-08T11:21:36.832Z,7.53
2022-11-08T11:24:51.462Z,10.63
2022-11-08T11:28:02.518Z,8.75
2022-11-08T11:31:17.081Z,10.57
2022-11-08T11:34:19.011Z,8.18
2022-11-08T11:37:35.587Z,6.03
2022-11-08T11:40:56.723Z,12.07
2022-11-08T11:44:15.723Z,11.57
2022-11-08T11:47:37.494Z,10.10
2022-11-08T11:50:41.215Z,11.02
2022-11-08T11:53:47.675Z,7.95
2022-11-08T11:57:08.960Z,8.90
2022-11-08T12:00:15.257Z,7.88
2022-11-08T12:04:13.054Z,8.57
2022-11-08T12:07:30.054Z,7.07
2022-11-08T12:10:50.659Z,9.80
2022-11-08T12:13:55.543Z,10.48
2022-11-08T12:17:32.635Z,7.90
2022-11-08T12:20:49.200Z,6.93
2022-11-08T12:23:51.108Z,12.17
2022-11-08T12:27:17.725Z,8.27
2022-11-08T12:30:21.030Z,9.23
2022-11-08T12:33:32.115Z,8.05
2022-11-08T12:36:52.931Z,9.32
2022-11-08T12:40:00.679Z,7.07
2022-11-08T12:43:40.199Z,10.60
2022-11-08T12:47:14.493Z,9.40
2022-11-08T12:50:20.775Z,11.00
2022-11-08T12:53:41.434Z,10.30
2022-11-08T12:56:45.906Z,8.65
2022-11-08T13:00:15.669Z,11.80
2022-11-08T13:03:29.787Z,11.38
2022-11-08T13:06:41.027Z,10.10
2022-11-08T13:10:04.790Z,12.38
2022-11-08T13:13:33.002Z,9.18
2022-11-08T13:16:39.403Z,9.10
2022-11-08T13:19:48.009Z,10.90
2022-11-08T13:23:00.961Z,10.52
2022-11-08T13:26:42.319Z,12.00
2022-11-08T13:29:44.345Z,10.25
2022-11-08T13:33:05.609Z,7.45
2022-11-08T13:36:15.305Z,6.63
2022-11-08T13:39:29.338Z,8.57
2022-11-08T13:42:41.076Z,13.80
2022-11-08T13:45:44.612Z,10.95
2022-11-08T13:48:59.262Z,9.68
2022-11-08T13:52:38.599Z,9.20
2022-11-08T13:55:43.662Z,8.73
2022-11-08T13:58:46.936Z,11.13
2022-11-08T14:01:48.760Z,10.13
2022-11-08T14:04:51.320Z,7.93
2022-11-08T14:08:20.431Z,15.68
2022-11-08T14:12:00.536Z,10.52
2022-11-08T14:15:17.688Z,15.15
2022-11-08T14:18:29.905Z,9.80
2022-11-08T14:21:31.825Z,9.00
2022-11-08T14:24:37.016Z,13.07
2022-11-08T14:27:40.819Z,9.18
2022-11-08T14:30:50.699Z,10.25
2022-11-08T14:33:53.839Z,14.68
2022-11-08T14:36:56.425Z,12.65
2022-11-08T14:39:58.463Z,15.77
2022-11-08T14:43:00.393Z,13.88
2022-11-08T14:46:12.382Z,12.45
2022-11-08T14:49:14.207Z,39.40
2022-11-08T14:52:26.073Z,34.53
2022-11-08T14:55:27.991Z,21.10
2022-11-08T14:58:30.343Z,27.05
2022-11-08T15:01:32.882Z,19.52
2022-11-08T15:04:39.713Z,15.02
2022-11-08T15:07:41.830Z,17.70
2022-11-08T15:11:07.112Z,16.10
2022-11-08T15:14:17.354Z,14.52
2022-11-08T15:17:37.709Z,16.70
2022-11-08T15:20:40.990Z,13.30
2022-11-08T15:23:48.324Z,14.50
2022-11-08T15:27:21.715Z,11.32
2022-11-08T15:30:37.992Z,13.98
2022-11-08T15:33:42.057Z,17.38
2022-11-08T15:36:44.057Z,16.60
2022-11-08T15:39:46.488Z,20.60
2022-11-08T15:42:50.897Z,20.63
2022-11-08T15:45:53.837Z,16.40
2022-11-08T15:48:57.817Z,13.27
2022-11-08T15:51:59.952Z,13.73
2022-11-08T15:55:01.779Z,15.02
2022-11-08T15:58:04.812Z,11.02
2022-11-08T16:01:07.144Z,11.00
2022-11-08T16:04:13.492Z,16.95
2022-11-08T16:07:15.721Z,13.80
2022-11-08T16:10:20.917Z,12.82
2022-11-08T16:13:33.261Z,14.30
2022-11-08T16:16:35.887Z,16.30
2022-11-08T16:19:37.768Z,13.35
2022-11-08T16:22:40.012Z,18.38
2022-11-08T16:25:49.715Z,17.20
2022-11-08T16:28:51.938Z,31.50
2022-11-08T16:31:53.812Z,20.40
2022-11-08T16:34:55.824Z,17.50
2022-11-08T16:37:57.662Z,20.40
2022-11-08T16:40:59.626Z,17.55
2022-11-08T16:44:01.543Z,25.95
2022-11-08T16:47:03.635Z,20.83
2022-11-08T16:50:07.762Z,16.35
2022-11-08T16:53:20.944Z,18.02
2022-11-08T16:56:23.438Z,15.00
2022-11-08T16:59:25.496Z,15.68
2022-11-08T17:02:31.751Z,13.95
2022-11-08T17:05:34.202Z,15.73
2022-11-08T17:08:36.466Z,18.73
2022-11-08T17:11:39.831Z,14.93
2022-11-08T17:14:41.895Z,19.73
2022-11-08T17:17:44.815Z,17.38
2022-11-08T17:20:47.763Z,16.42
2022-11-08T17:23:50.233Z,17.80
2022-11-08T17:26:53.832Z,19.48
2022-11-08T17:29:55.870Z,27.10
2022-11-08T17:32:57.968Z,18.50
2022-11-08T17:36:07.620Z,20.33
2022-11-08T17:39:12.525Z,15.15
2022-11-08T17:42:15.055Z,17.05
2022-11-08T17:45:17.167Z,14.48
2022-11-08T17:48:19.555Z,24.33
2022-11-08T17:51:22.350Z,20.02
2022-11-08T17:54:24.981Z,18.65
2022-11-08T17:57:30.217Z,15.95
2022-11-08T18:00:33.763Z,17.67
2022-11-08T18:03:35.936Z,16.33
2022-11-08T18:06:40.789Z,20.00
2022-11-08T18:09:42.777Z,21.90
2022-11-08T18:12:45.324Z,18.95
2022-11-08T18:15:48.421Z,22.10
2022-11-08T18:18:51.370Z,22.13
2022-11-08T18:21:54.472Z,17.90
2022-11-08T18:24:57.335Z,20.05
2022-11-08T18:27:59.463Z,16.95
2022-11-08T18:31:11.263Z,26.95
2022-11-08T18:34:13.324Z,24.67
2022-11-08T18:37:15.333Z,25.45
2022-11-08T18:40:17.829Z,31.05
2022-11-08T18:43:20.219Z,21.77
2022-11-08T18:46:24.539Z,31.40
2022-11-08T18:49:27.014Z,29.35
2022-11-08T18:52:29.966Z,29.67
2022-11-08T18:55:33.728Z,30.50
2022-11-08T18:58:36.562Z,27.17
2022-11-08T19:01:39.463Z,32.50
2022-11-08T19:04:42.939Z,26.10
2022-11-08T19:07:46.941Z,33.58
2022-11-08T19:10:54.998Z,24.42
2022-11-08T19:13:59.889Z,33.17
2022-11-08T19:17:05.386Z,28.75
2022-11-08T19:20:11.151Z,27.20
2022-11-08T19:23:13.457Z,41.83
2022-11-08T19:26:25.140Z,27.70
2022-11-08T19:29:30.235Z,27.83
2022-11-08T19:32:33.205Z,26.77
2022-11-08T19:35:37.874Z,26.73
2022-11-08T19:38:41.444Z,26.58
2022-11-08T19:41:45.649Z,28.95
2022-11-08T19:44:49.044Z,31.33
2022-11-08T19:47:53.041Z,21.75
2022-11-08T19:50:57.121Z,21.42
2022-11-08T19:54:05.985Z,23.60
2022-11-08T19:57:12.292Z,23.05
2022-11-08T20:00:16.032Z,22.30
2022-11-08T20:03:19.304Z,28.23
2022-11-08T20:06:22.760Z,23.35
2022-11-08T20:09:30.639Z,26.02
2022-11-08T20:12:33.065Z,21.65
2022-11-08T20:15:37.640Z,26.65
2022-11-08T20:18:41.597Z,20.85
2022-11-08T20:21:46.541Z,28.35
2022-11-08T20:24:49.047Z,21.77
2022-11-08T20:27:50.968Z,21.00
2022-11-08T20:30:53.245Z,22.73
2022-11-08T20:33:56.196Z,24.13
2022-11-08T20:36:58.856Z,26.05
2022-11-08T20:40:00.745Z,23.52
2022-11-08T20:43:02.782Z,23.60
2022-11-08T20:46:06.895Z,23.08
2022-11-08T20:49:09.687Z,24.63
2022-11-08T20:52:11.816Z,23.13
2022-11-08T20:55:13.996Z,24.63
2022-11-08T20:58:16.230Z,22.02
2022-11-08T21:01:21.501Z,19.13
2022-11-08T21:04:23.850Z,21.77
2022-11-08T21:10:49.096Z,32.40
2022-11-08T21:13:51.293Z,21.85
2022-11-08T21:17:20.070Z,24.25
2022-11-08T21:20:15.696Z,23.25
2022-11-08T21:23:19.076Z,20.40
2022-11-08T21:26:21.108Z,23.65
2022-11-08T21:29:23.024Z,27.17
2022-11-08T21:32:25.102Z,26.52
2022-11-08T21:35:27.028Z,20.50
2022-11-08T21:38:29.530Z,23.63
2022-11-08T21:41:31.602Z,27.70
2022-11-08T21:44:33.455Z,26.08
2022-11-08T21:47:35.681Z,20.90
2022-11-08T21:50:38.335Z,21.52
2022-11-08T21:53:49.449Z,24.20
2022-11-08T21:56:55.827Z,28.42
2022-11-08T21:59:57.852Z,27.05
2022-11-08T22:02:59.859Z,20.80
2022-11-08T22:06:02.181Z,22.33
2022-11-08T22:09:04.393Z,21.83
2022-11-08T22:12:06.602Z,22.02
2022-11-08T22:15:09.559Z,22.17
2022-11-08T22:18:36.420Z,21.23
2022-11-08T22:21:40.501Z,18.40
2022-11-08T22:24:43.343Z,26.85
2022-11-08T22:27:45.209Z,17.52
2022-11-08T22:30:51.772Z,24.55
2022-11-08T22:33:53.617Z,20.98
2022-11-08T22:36:55.543Z,22.20
2022-11-08T22:39:57.618Z,24.30
2022-11-08T22:42:59.593Z,24.40
2022-11-08T22:46:01.908Z,25.00
2022-11-08T22:49:04.079Z,24.95
2022-11-08T22:52:06.338Z,21.40
2022-11-08T22:55:08.960Z,21.33
2022-11-08T22:58:12.174Z,23.00
2022-11-08T23:01:15.264Z,25.35
2022-11-08T23:04:17.537Z,19.05
2022-11-08T23:07:19.411Z,20.52
2022-11-08T23:10:21.385Z,20.95
2022-11-08T23:13:41.940Z,21.13
2022-11-08T23:16:45.536Z,19.67
2022-11-08T23:20:05.958Z,19.88
2022-11-08T23:23:27.868Z,20.92
2022-11-08T23:27:05.179Z,16.95
2022-11-08T23:30:26.903Z,20.92
2022-11-08T23:33:28.751Z,27.30
2022-11-08T23:36:30.619Z,19.13
2022-11-08T23:39:32.523Z,20.40
2022-11-08T23:42:52.909Z,21.45
2022-11-08T23:45:54.813Z,23.92
2022-11-08T23:48:56.733Z,25.08
2022-11-08T23:51:58.797Z,21.98
2022-11-08T23:55:00.572Z,21.30
2022-11-08T23:58:02.328Z,18.45
